• Join FlightAware (Why Join?)
  • Login
  • US Flag 
07:21PM EDT


 

Airport Tracker/Info


-or-


 

Live Flight TrackerFlight Track Log ✈ KAP320 ✈ 17-Jul-2013 ✈ KBOS - KACK

Flight Track Log - Related Links

Times and Time Zones

All times are in EDT time to prevent confusion due to time zone crossing. See the KAP320 flight status page for this flight to view local times or setup timezone preferences in your user account.

Time Position Orientation Groundspeed Altitude Reporting Facility
EDT Latitude Longitude Course Direction KTS MPH feet Rate Location/Type
08:39AM 42.3667 -70.9833 124° Southeast 119 137 400  Level KA90
08:39AM 42.3500 -70.9500 124° Southeast 138 159 1,000 540 Climbing KA90
08:40AM 42.3333 -70.9167 124° Southeast 134 154 1,400 420 Climbing KA90
08:41AM 42.3000 -70.8833 144° Southeast 141 162 1,800 420 Climbing KA90
08:42AM 42.2500 -70.8500 154° Southeast 144 166 2,400 420 Climbing KA90
08:43AM 42.2167 -70.8333 160° South 145 167 2,800 420 Climbing KA90
08:44AM 42.1833 -70.8000 143° Southeast 147 169 3,300 420 Climbing KA90
08:45AM 42.1500 -70.7667 143° Southeast 148 170 3,700 480 Climbing KA90
08:46AM 42.1167 -70.7500 160° South 151 174 4,200 480 Climbing KA90
08:47AM 42.0833 -70.7167 143° Southeast 152 175 4,700 420 Climbing KA90
08:49AM 42.0437 -70.6849 149° Southeast  Level Estimated
08:56AM 41.8088 -70.4974 149° Southeast  Level Estimated
08:57AM 41.7752 -70.4708 149° Southeast  Level Estimated
08:58AM 41.7416 -70.4441 149° Southeast  Level Estimated
08:59AM 41.7080 -70.4175 149° Southeast  Level Estimated
09:00AM 41.6745 -70.3909 149° Southeast  Level Estimated
09:01AM 41.6409 -70.3644 149° Southeast  Level Estimated
09:02AM 41.6073 -70.3379 149° Southeast  Level Estimated
09:03AM 41.5736 -70.3114 149° Southeast  Level Estimated
09:04AM 41.5400 -70.2849 149° Southeast  Level Estimated
09:05AM 41.5064 -70.2585 150° Southeast  Level Estimated
09:06AM 41.4728 -70.2320 150° Southeast  Level Estimated
09:07AM 41.4391 -70.2057 150° Southeast  Level Estimated
09:08AM 41.4055 -70.1793 150° Southeast  Level Estimated
09:09AM 41.3718 -70.1530 150° Southeast  Level Estimated
09:10AM 41.3382 -70.1267 150° Southeast  Level Estimated
09:11AM 41.3045 -70.1004 150° Southeast  Level Estimated
09:12AM 41.2709 -70.0741 150° Southeast  Level Estimated
09:13AM 41.2531 -70.0603 150° Southeast  Level Estimated
09:14AM 41.2531 -70.0603 72° East  Level Estimated
09:15AM 41.2531 -70.0603 72° East  Level Estimated
09:16AM 41.2531 -70.0603 72° East  Level Estimated
09:17AM 41.2531 -70.0603 72° East  Level Estimated
09:18AM 41.2531 -70.0603 72° East  Level Estimated